sensor_id;sensor_type;location;lat;lon;timestamp;P1;durP1;ratioP1;P2;durP2;ratioP2
7487;SDS011;3785;52.260;4.728;2023-01-28T00:02:39;6.60;;;3.92;;
7487;SDS011;3785;52.260;4.728;2023-01-28T00:06:21;6.72;;;3.88;;
7487;SDS011;3785;52.260;4.728;2023-01-28T00:09:41;6.00;;;3.90;;
7487;SDS011;3785;52.260;4.728;2023-01-28T00:13:01;5.65;;;3.63;;
7487;SDS011;3785;52.260;4.728;2023-01-28T00:16:22;7.53;;;4.22;;
7487;SDS011;3785;52.260;4.728;2023-01-28T00:19:43;5.65;;;3.33;;
7487;SDS011;3785;52.260;4.728;2023-01-28T00:23:03;4.43;;;2.92;;
7487;SDS011;3785;52.260;4.728;2023-01-28T00:26:24;5.65;;;3.47;;
7487;SDS011;3785;52.260;4.728;2023-01-28T00:29:45;6.30;;;3.95;;
7487;SDS011;3785;52.260;4.728;2023-01-28T00:33:06;6.35;;;3.47;;
7487;SDS011;3785;52.260;4.728;2023-01-28T00:36:27;6.30;;;3.83;;
7487;SDS011;3785;52.260;4.728;2023-01-28T00:39:48;5.95;;;3.58;;
7487;SDS011;3785;52.260;4.728;2023-01-28T00:43:08;4.43;;;2.80;;
7487;SDS011;3785;52.260;4.728;2023-01-28T00:46:29;4.43;;;2.65;;
7487;SDS011;3785;52.260;4.728;2023-01-28T00:49:49;4.15;;;2.58;;
7487;SDS011;3785;52.260;4.728;2023-01-28T00:53:10;3.80;;;2.65;;
7487;SDS011;3785;52.260;4.728;2023-01-28T00:56:30;4.43;;;2.80;;
7487;SDS011;3785;52.260;4.728;2023-01-28T00:59:51;3.63;;;2.30;;
7487;SDS011;3785;52.260;4.728;2023-01-28T01:03:11;2.38;;;1.80;;
7487;SDS011;3785;52.260;4.728;2023-01-28T01:06:33;3.53;;;2.20;;
7487;SDS011;3785;52.260;4.728;2023-01-28T01:09:55;4.15;;;2.40;;
7487;SDS011;3785;52.260;4.728;2023-01-28T01:13:22;3.08;;;2.22;;
7487;SDS011;3785;52.260;4.728;2023-01-28T01:16:43;3.60;;;2.47;;
7487;SDS011;3785;52.260;4.728;2023-01-28T01:20:07;2.95;;;1.88;;
7487;SDS011;3785;52.260;4.728;2023-01-28T01:23:33;3.83;;;2.47;;
7487;SDS011;3785;52.260;4.728;2023-01-28T01:26:53;3.88;;;2.40;;
7487;SDS011;3785;52.260;4.728;2023-01-28T01:30:14;4.20;;;2.28;;
7487;SDS011;3785;52.260;4.728;2023-01-28T01:33:35;3.75;;;2.17;;
7487;SDS011;3785;52.260;4.728;2023-01-28T01:36:56;3.50;;;2.25;;
7487;SDS011;3785;52.260;4.728;2023-01-28T01:40:16;4.60;;;2.15;;
7487;SDS011;3785;52.260;4.728;2023-01-28T01:47:07;3.10;;;1.92;;
7487;SDS011;3785;52.260;4.728;2023-01-28T01:50:32;3.53;;;1.98;;
7487;SDS011;3785;52.260;4.728;2023-01-28T01:53:59;3.25;;;1.98;;
7487;SDS011;3785;52.260;4.728;2023-01-28T01:57:21;2.83;;;1.70;;
7487;SDS011;3785;52.260;4.728;2023-01-28T02:00:46;4.18;;;2.20;;
7487;SDS011;3785;52.260;4.728;2023-01-28T02:04:41;3.60;;;2.20;;
7487;SDS011;3785;52.260;4.728;2023-01-28T02:07:56;3.15;;;2.20;;
7487;SDS011;3785;52.260;4.728;2023-01-28T02:11:36;3.70;;;2.05;;
7487;SDS011;3785;52.260;4.728;2023-01-28T02:14:58;3.25;;;1.90;;
7487;SDS011;3785;52.260;4.728;2023-01-28T02:18:39;6.00;;;2.38;;
7487;SDS011;3785;52.260;4.728;2023-01-28T02:22:05;3.35;;;2.08;;
7487;SDS011;3785;52.260;4.728;2023-01-28T02:26:05;4.00;;;2.22;;
7487;SDS011;3785;52.260;4.728;2023-01-28T02:30:17;4.15;;;2.22;;
7487;SDS011;3785;52.260;4.728;2023-01-28T02:33:16;4.10;;;2.42;;
7487;SDS011;3785;52.260;4.728;2023-01-28T02:36:49;3.13;;;1.95;;
7487;SDS011;3785;52.260;4.728;2023-01-28T02:40:24;3.45;;;1.80;;
7487;SDS011;3785;52.260;4.728;2023-01-28T02:43:48;4.07;;;1.70;;
7487;SDS011;3785;52.260;4.728;2023-01-28T02:47:10;2.97;;;2.08;;
7487;SDS011;3785;52.260;4.728;2023-01-28T02:50:56;3.90;;;1.88;;
7487;SDS011;3785;52.260;4.728;2023-01-28T02:58:18;2.65;;;1.60;;
7487;SDS011;3785;52.260;4.728;2023-01-28T03:06:01;3.47;;;1.67;;
7487;SDS011;3785;52.260;4.728;2023-01-28T03:09:27;2.20;;;1.52;;
7487;SDS011;3785;52.260;4.728;2023-01-28T03:12:48;2.83;;;1.73;;
7487;SDS011;3785;52.260;4.728;2023-01-28T03:16:30;2.25;;;1.40;;
7487;SDS011;3785;52.260;4.728;2023-01-28T03:20:11;3.25;;;1.80;;
7487;SDS011;3785;52.260;4.728;2023-01-28T03:24:02;2.33;;;1.58;;
7487;SDS011;3785;52.260;4.728;2023-01-28T03:27:49;3.75;;;1.63;;
7487;SDS011;3785;52.260;4.728;2023-01-28T03:31:34;2.90;;;1.73;;
7487;SDS011;3785;52.260;4.728;2023-01-28T03:35:14;4.05;;;1.75;;
7487;SDS011;3785;52.260;4.728;2023-01-28T03:38:54;2.53;;;1.50;;
7487;SDS011;3785;52.260;4.728;2023-01-28T03:42:15;3.08;;;1.90;;
7487;SDS011;3785;52.260;4.728;2023-01-28T03:45:37;2.67;;;1.67;;
7487;SDS011;3785;52.260;4.728;2023-01-28T03:48:58;5.93;;;1.60;;
7487;SDS011;3785;52.260;4.728;2023-01-28T03:52:20;2.47;;;1.90;;
7487;SDS011;3785;52.260;4.728;2023-01-28T03:55:46;5.03;;;1.77;;
7487;SDS011;3785;52.260;4.728;2023-01-28T03:59:08;3.15;;;1.85;;
7487;SDS011;3785;52.260;4.728;2023-01-28T04:02:28;4.22;;;1.63;;
7487;SDS011;3785;52.260;4.728;2023-01-28T04:09:20;2.22;;;1.60;;
7487;SDS011;3785;52.260;4.728;2023-01-28T04:12:41;3.33;;;1.90;;
7487;SDS011;3785;52.260;4.728;2023-01-28T04:16:03;3.38;;;2.00;;
7487;SDS011;3785;52.260;4.728;2023-01-28T04:19:24;3.58;;;1.88;;
7487;SDS011;3785;52.260;4.728;2023-01-28T04:22:45;3.10;;;2.10;;
7487;SDS011;3785;52.260;4.728;2023-01-28T04:26:06;3.08;;;1.67;;
7487;SDS011;3785;52.260;4.728;2023-01-28T04:29:27;3.10;;;1.90;;
7487;SDS011;3785;52.260;4.728;2023-01-28T04:32:48;3.00;;;1.92;;
7487;SDS011;3785;52.260;4.728;2023-01-28T04:36:09;3.45;;;2.10;;
7487;SDS011;3785;52.260;4.728;2023-01-28T04:39:30;3.88;;;2.15;;
7487;SDS011;3785;52.260;4.728;2023-01-28T04:42:53;3.83;;;2.17;;
7487;SDS011;3785;52.260;4.728;2023-01-28T04:46:15;2.85;;;2.08;;
7487;SDS011;3785;52.260;4.728;2023-01-28T04:49:36;3.15;;;1.75;;
7487;SDS011;3785;52.260;4.728;2023-01-28T04:52:56;3.83;;;2.10;;
7487;SDS011;3785;52.260;4.728;2023-01-28T04:56:17;3.33;;;2.40;;
7487;SDS011;3785;52.260;4.728;2023-01-28T04:59:37;4.15;;;2.25;;
7487;SDS011;3785;52.260;4.728;2023-01-28T05:02:58;4.05;;;2.42;;
7487;SDS011;3785;52.260;4.728;2023-01-28T05:06:18;8.30;;;2.42;;
7487;SDS011;3785;52.260;4.728;2023-01-28T05:09:39;3.45;;;2.15;;
7487;SDS011;3785;52.260;4.728;2023-01-28T05:13:00;3.90;;;2.58;;
7487;SDS011;3785;52.260;4.728;2023-01-28T05:16:20;4.30;;;2.38;;
7487;SDS011;3785;52.260;4.728;2023-01-28T05:19:41;3.42;;;2.25;;
7487;SDS011;3785;52.260;4.728;2023-01-28T05:23:02;3.05;;;2.00;;
7487;SDS011;3785;52.260;4.728;2023-01-28T05:26:23;4.88;;;2.53;;
7487;SDS011;3785;52.260;4.728;2023-01-28T05:29:43;3.50;;;2.22;;
7487;SDS011;3785;52.260;4.728;2023-01-28T05:33:04;3.10;;;2.22;;
7487;SDS011;3785;52.260;4.728;2023-01-28T05:36:25;3.33;;;2.50;;
7487;SDS011;3785;52.260;4.728;2023-01-28T05:39:45;2.90;;;2.10;;
7487;SDS011;3785;52.260;4.728;2023-01-28T05:43:06;3.53;;;1.90;;
7487;SDS011;3785;52.260;4.728;2023-01-28T05:46:26;4.47;;;2.25;;
7487;SDS011;3785;52.260;4.728;2023-01-28T05:49:47;3.45;;;2.20;;
7487;SDS011;3785;52.260;4.728;2023-01-28T05:53:07;2.78;;;1.73;;
7487;SDS011;3785;52.260;4.728;2023-01-28T05:56:28;5.13;;;2.38;;
7487;SDS011;3785;52.260;4.728;2023-01-28T05:59:49;4.53;;;2.78;;
7487;SDS011;3785;52.260;4.728;2023-01-28T06:03:09;5.18;;;2.83;;
7487;SDS011;3785;52.260;4.728;2023-01-28T06:06:30;4.20;;;2.45;;
7487;SDS011;3785;52.260;4.728;2023-01-28T06:09:51;3.45;;;2.33;;
7487;SDS011;3785;52.260;4.728;2023-01-28T06:13:11;4.88;;;2.50;;
7487;SDS011;3785;52.260;4.728;2023-01-28T06:16:32;4.32;;;2.40;;
7487;SDS011;3785;52.260;4.728;2023-01-28T06:19:52;4.20;;;2.38;;
7487;SDS011;3785;52.260;4.728;2023-01-28T06:23:13;4.13;;;2.95;;
7487;SDS011;3785;52.260;4.728;2023-01-28T06:26:33;3.72;;;2.80;;
7487;SDS011;3785;52.260;4.728;2023-01-28T06:29:54;4.97;;;2.92;;
7487;SDS011;3785;52.260;4.728;2023-01-28T06:33:14;5.55;;;3.38;;
7487;SDS011;3785;52.260;4.728;2023-01-28T06:36:35;4.80;;;2.85;;
7487;SDS011;3785;52.260;4.728;2023-01-28T06:39:57;5.43;;;3.30;;
7487;SDS011;3785;52.260;4.728;2023-01-28T06:43:17;3.80;;;2.70;;
7487;SDS011;3785;52.260;4.728;2023-01-28T06:46:38;4.10;;;2.92;;
7487;SDS011;3785;52.260;4.728;2023-01-28T06:49:58;5.40;;;2.83;;
7487;SDS011;3785;52.260;4.728;2023-01-28T06:53:19;5.22;;;2.85;;
7487;SDS011;3785;52.260;4.728;2023-01-28T06:56:40;5.05;;;2.85;;
7487;SDS011;3785;52.260;4.728;2023-01-28T07:00:00;5.32;;;2.55;;
7487;SDS011;3785;52.260;4.728;2023-01-28T07:03:21;5.57;;;2.67;;
7487;SDS011;3785;52.260;4.728;2023-01-28T07:06:41;3.55;;;2.22;;
7487;SDS011;3785;52.260;4.728;2023-01-28T07:10:02;3.63;;;2.28;;
7487;SDS011;3785;52.260;4.728;2023-01-28T07:13:23;5.97;;;2.60;;
7487;SDS011;3785;52.260;4.728;2023-01-28T07:16:44;4.60;;;2.63;;
7487;SDS011;3785;52.260;4.728;2023-01-28T07:20:05;3.72;;;2.60;;
7487;SDS011;3785;52.260;4.728;2023-01-28T07:23:26;3.80;;;2.40;;
7487;SDS011;3785;52.260;4.728;2023-01-28T07:26:46;4.60;;;2.38;;
7487;SDS011;3785;52.260;4.728;2023-01-28T07:30:07;6.13;;;2.78;;
7487;SDS011;3785;52.260;4.728;2023-01-28T07:33:28;4.97;;;2.78;;
7487;SDS011;3785;52.260;4.728;2023-01-28T07:36:49;4.20;;;2.50;;
7487;SDS011;3785;52.260;4.728;2023-01-28T07:40:09;4.32;;;2.35;;
7487;SDS011;3785;52.260;4.728;2023-01-28T07:43:30;5.65;;;2.42;;
7487;SDS011;3785;52.260;4.728;2023-01-28T07:46:51;3.53;;;2.08;;
7487;SDS011;3785;52.260;4.728;2023-01-28T07:50:11;2.88;;;2.08;;
7487;SDS011;3785;52.260;4.728;2023-01-28T07:53:32;3.70;;;2.53;;
7487;SDS011;3785;52.260;4.728;2023-01-28T07:56:52;4.60;;;2.38;;
7487;SDS011;3785;52.260;4.728;2023-01-28T08:00:13;3.85;;;2.50;;
7487;SDS011;3785;52.260;4.728;2023-01-28T08:03:34;4.15;;;2.13;;
7487;SDS011;3785;52.260;4.728;2023-01-28T08:06:55;2.90;;;2.10;;
7487;SDS011;3785;52.260;4.728;2023-01-28T08:10:16;3.13;;;2.10;;
7487;SDS011;3785;52.260;4.728;2023-01-28T08:13:38;4.18;;;2.13;;
7487;SDS011;3785;52.260;4.728;2023-01-28T08:16:59;3.28;;;2.35;;
7487;SDS011;3785;52.260;4.728;2023-01-28T08:20:19;4.45;;;2.50;;
7487;SDS011;3785;52.260;4.728;2023-01-28T08:23:40;3.75;;;2.20;;
7487;SDS011;3785;52.260;4.728;2023-01-28T08:27:01;3.75;;;2.60;;
7487;SDS011;3785;52.260;4.728;2023-01-28T08:30:23;5.28;;;2.35;;
7487;SDS011;3785;52.260;4.728;2023-01-28T08:33:44;4.32;;;2.67;;
7487;SDS011;3785;52.260;4.728;2023-01-28T08:37:04;5.17;;;2.47;;
7487;SDS011;3785;52.260;4.728;2023-01-28T08:40:25;3.90;;;2.60;;
7487;SDS011;3785;52.260;4.728;2023-01-28T08:43:46;4.03;;;2.17;;
7487;SDS011;3785;52.260;4.728;2023-01-28T08:47:07;3.80;;;2.70;;
7487;SDS011;3785;52.260;4.728;2023-01-28T08:50:29;4.27;;;2.80;;
7487;SDS011;3785;52.260;4.728;2023-01-28T08:53:51;3.97;;;2.47;;
7487;SDS011;3785;52.260;4.728;2023-01-28T08:57:12;5.10;;;2.77;;
7487;SDS011;3785;52.260;4.728;2023-01-28T09:00:33;3.80;;;2.50;;
7487;SDS011;3785;52.260;4.728;2023-01-28T09:03:54;5.43;;;3.03;;
7487;SDS011;3785;52.260;4.728;2023-01-28T09:07:15;5.32;;;2.65;;
7487;SDS011;3785;52.260;4.728;2023-01-28T09:10:36;5.40;;;3.10;;
7487;SDS011;3785;52.260;4.728;2023-01-28T09:13:57;5.20;;;3.17;;
7487;SDS011;3785;52.260;4.728;2023-01-28T09:17:17;5.50;;;3.20;;
7487;SDS011;3785;52.260;4.728;2023-01-28T09:20:39;6.40;;;3.58;;
7487;SDS011;3785;52.260;4.728;2023-01-28T09:23:59;6.35;;;3.38;;
7487;SDS011;3785;52.260;4.728;2023-01-28T09:27:20;4.60;;;3.03;;
7487;SDS011;3785;52.260;4.728;2023-01-28T09:30:40;6.22;;;2.97;;
7487;SDS011;3785;52.260;4.728;2023-01-28T09:34:01;5.35;;;3.10;;
7487;SDS011;3785;52.260;4.728;2023-01-28T09:37:23;4.93;;;2.88;;
7487;SDS011;3785;52.260;4.728;2023-01-28T09:40:43;5.13;;;3.10;;
7487;SDS011;3785;52.260;4.728;2023-01-28T09:48:20;5.60;;;3.00;;
7487;SDS011;3785;52.260;4.728;2023-01-28T09:51:45;6.35;;;2.97;;
7487;SDS011;3785;52.260;4.728;2023-01-28T09:55:28;5.40;;;2.60;;
7487;SDS011;3785;52.260;4.728;2023-01-28T09:58:49;5.72;;;3.20;;
7487;SDS011;3785;52.260;4.728;2023-01-28T10:02:18;4.45;;;2.80;;
7487;SDS011;3785;52.260;4.728;2023-01-28T10:05:58;6.47;;;3.15;;
7487;SDS011;3785;52.260;4.728;2023-01-28T10:13:27;4.97;;;3.28;;
7487;SDS011;3785;52.260;4.728;2023-01-28T10:16:59;5.18;;;2.67;;
7487;SDS011;3785;52.260;4.728;2023-01-28T10:20:31;4.20;;;2.65;;
7487;SDS011;3785;52.260;4.728;2023-01-28T10:24:00;5.82;;;3.38;;
7487;SDS011;3785;52.260;4.728;2023-01-28T10:27:27;4.18;;;2.42;;
7487;SDS011;3785;52.260;4.728;2023-01-28T10:30:49;4.80;;;2.50;;
7487;SDS011;3785;52.260;4.728;2023-01-28T10:34:10;5.03;;;2.80;;
7487;SDS011;3785;52.260;4.728;2023-01-28T10:37:32;4.18;;;2.83;;
7487;SDS011;3785;52.260;4.728;2023-01-28T10:40:55;4.10;;;2.42;;
7487;SDS011;3785;52.260;4.728;2023-01-28T10:44:30;4.88;;;2.72;;
7487;SDS011;3785;52.260;4.728;2023-01-28T10:48:14;4.80;;;3.08;;
7487;SDS011;3785;52.260;4.728;2023-01-28T10:51:48;4.32;;;2.28;;
7487;SDS011;3785;52.260;4.728;2023-01-28T10:55:12;4.30;;;2.85;;
7487;SDS011;3785;52.260;4.728;2023-01-28T10:58:33;4.50;;;2.30;;
7487;SDS011;3785;52.260;4.728;2023-01-28T11:02:03;4.07;;;2.47;;
7487;SDS011;3785;52.260;4.728;2023-01-28T11:05:28;4.60;;;2.83;;
7487;SDS011;3785;52.260;4.728;2023-01-28T11:08:49;4.00;;;2.35;;
7487;SDS011;3785;52.260;4.728;2023-01-28T11:12:21;5.32;;;2.95;;
7487;SDS011;3785;52.260;4.728;2023-01-28T11:19:34;4.20;;;2.95;;
7487;SDS011;3785;52.260;4.728;2023-01-28T11:22:55;4.82;;;2.80;;
7487;SDS011;3785;52.260;4.728;2023-01-28T11:26:18;4.75;;;2.80;;
7487;SDS011;3785;52.260;4.728;2023-01-28T11:29:42;3.67;;;2.38;;
7487;SDS011;3785;52.260;4.728;2023-01-28T11:33:13;5.55;;;2.67;;
7487;SDS011;3785;52.260;4.728;2023-01-28T11:36:35;3.53;;;2.47;;
7487;SDS011;3785;52.260;4.728;2023-01-28T11:43:39;4.78;;;3.05;;
7487;SDS011;3785;52.260;4.728;2023-01-28T11:47:03;5.07;;;2.50;;
7487;SDS011;3785;52.260;4.728;2023-01-28T12:01:20;6.03;;;2.95;;
7487;SDS011;3785;52.260;4.728;2023-01-28T12:04:54;3.38;;;2.40;;
7487;SDS011;3785;52.260;4.728;2023-01-28T12:08:33;5.05;;;2.58;;
7487;SDS011;3785;52.260;4.728;2023-01-28T12:12:16;3.90;;;2.42;;
7487;SDS011;3785;52.260;4.728;2023-01-28T12:26:15;3.90;;;2.63;;
7487;SDS011;3785;52.260;4.728;2023-01-28T12:44:15;2.78;;;1.85;;
7487;SDS011;3785;52.260;4.728;2023-01-28T12:47:59;3.10;;;1.88;;
7487;SDS011;3785;52.260;4.728;2023-01-28T12:51:27;3.33;;;1.88;;
7487;SDS011;3785;52.260;4.728;2023-01-28T12:58:17;4.55;;;2.00;;
7487;SDS011;3785;52.260;4.728;2023-01-28T13:01:41;3.90;;;2.53;;
7487;SDS011;3785;52.260;4.728;2023-01-28T13:05:14;2.90;;;1.75;;
7487;SDS011;3785;52.260;4.728;2023-01-28T13:08:40;3.58;;;2.10;;
7487;SDS011;3785;52.260;4.728;2023-01-28T13:12:01;4.25;;;2.22;;
7487;SDS011;3785;52.260;4.728;2023-01-28T13:15:22;4.00;;;2.22;;
7487;SDS011;3785;52.260;4.728;2023-01-28T13:18:44;3.67;;;1.98;;
7487;SDS011;3785;52.260;4.728;2023-01-28T13:22:12;3.75;;;1.88;;
7487;SDS011;3785;52.260;4.728;2023-01-28T13:25:53;3.60;;;1.95;;
7487;SDS011;3785;52.260;4.728;2023-01-28T13:32:53;4.63;;;2.55;;
7487;SDS011;3785;52.260;4.728;2023-01-28T13:39:45;4.35;;;2.33;;
7487;SDS011;3785;52.260;4.728;2023-01-28T13:50:51;3.72;;;2.00;;
7487;SDS011;3785;52.260;4.728;2023-01-28T13:54:16;2.78;;;1.90;;
7487;SDS011;3785;52.260;4.728;2023-01-28T14:12:37;4.00;;;2.20;;
7487;SDS011;3785;52.260;4.728;2023-01-28T14:16:21;4.13;;;2.28;;
7487;SDS011;3785;52.260;4.728;2023-01-28T14:20:44;4.35;;;2.17;;
7487;SDS011;3785;52.260;4.728;2023-01-28T14:24:00;3.70;;;2.00;;
7487;SDS011;3785;52.260;4.728;2023-01-28T14:27:29;3.53;;;1.90;;
7487;SDS011;3785;52.260;4.728;2023-01-28T14:31:00;3.60;;;1.63;;
7487;SDS011;3785;52.260;4.728;2023-01-28T14:34:34;3.60;;;2.20;;
7487;SDS011;3785;52.260;4.728;2023-01-28T14:37:56;4.57;;;2.05;;
7487;SDS011;3785;52.260;4.728;2023-01-28T14:41:21;2.85;;;1.70;;
7487;SDS011;3785;52.260;4.728;2023-01-28T14:44:44;3.35;;;1.85;;
7487;SDS011;3785;52.260;4.728;2023-01-28T14:55:26;3.95;;;2.10;;
7487;SDS011;3785;52.260;4.728;2023-01-28T15:02:52;3.42;;;2.28;;
7487;SDS011;3785;52.260;4.728;2023-01-28T15:06:17;4.97;;;2.40;;
7487;SDS011;3785;52.260;4.728;2023-01-28T15:09:43;3.78;;;2.30;;
7487;SDS011;3785;52.260;4.728;2023-01-28T15:16:26;3.00;;;1.73;;
7487;SDS011;3785;52.260;4.728;2023-01-28T15:19:49;3.17;;;1.33;;
7487;SDS011;3785;52.260;4.728;2023-01-28T15:23:11;1.50;;;0.85;;
7487;SDS011;3785;52.260;4.728;2023-01-28T15:26:34;2.92;;;1.00;;
7487;SDS011;3785;52.260;4.728;2023-01-28T15:29:56;2.92;;;1.42;;
7487;SDS011;3785;52.260;4.728;2023-01-28T15:33:19;2.00;;;1.23;;
7487;SDS011;3785;52.260;4.728;2023-01-28T15:36:41;2.53;;;1.20;;
7487;SDS011;3785;52.260;4.728;2023-01-28T15:40:02;2.97;;;1.52;;
7487;SDS011;3785;52.260;4.728;2023-01-28T15:43:29;2.17;;;1.40;;
7487;SDS011;3785;52.260;4.728;2023-01-28T15:46:51;3.65;;;1.80;;
7487;SDS011;3785;52.260;4.728;2023-01-28T15:50:18;3.08;;;1.52;;
7487;SDS011;3785;52.260;4.728;2023-01-28T15:53:44;2.97;;;1.40;;
7487;SDS011;3785;52.260;4.728;2023-01-28T15:57:19;3.70;;;2.03;;
7487;SDS011;3785;52.260;4.728;2023-01-28T16:00:41;3.80;;;2.00;;
7487;SDS011;3785;52.260;4.728;2023-01-28T16:04:02;3.67;;;2.05;;
7487;SDS011;3785;52.260;4.728;2023-01-28T16:07:25;3.20;;;2.05;;
7487;SDS011;3785;52.260;4.728;2023-01-28T16:10:50;3.03;;;1.55;;
7487;SDS011;3785;52.260;4.728;2023-01-28T16:14:33;3.60;;;1.48;;
7487;SDS011;3785;52.260;4.728;2023-01-28T16:17:58;3.33;;;1.95;;
7487;SDS011;3785;52.260;4.728;2023-01-28T16:21:20;3.03;;;1.88;;
7487;SDS011;3785;52.260;4.728;2023-01-28T16:24:50;4.30;;;2.40;;
7487;SDS011;3785;52.260;4.728;2023-01-28T16:28:18;4.82;;;2.22;;
7487;SDS011;3785;52.260;4.728;2023-01-28T16:31:39;4.65;;;2.40;;
7487;SDS011;3785;52.260;4.728;2023-01-28T16:35:00;4.50;;;2.30;;
7487;SDS011;3785;52.260;4.728;2023-01-28T16:38:22;3.72;;;2.25;;
7487;SDS011;3785;52.260;4.728;2023-01-28T16:41:43;4.72;;;2.72;;
7487;SDS011;3785;52.260;4.728;2023-01-28T16:45:05;2.83;;;1.92;;
7487;SDS011;3785;52.260;4.728;2023-01-28T16:48:26;3.80;;;2.15;;
7487;SDS011;3785;52.260;4.728;2023-01-28T16:51:49;3.47;;;2.13;;
7487;SDS011;3785;52.260;4.728;2023-01-28T16:55:13;6.07;;;2.20;;
7487;SDS011;3785;52.260;4.728;2023-01-28T16:58:35;3.67;;;2.33;;
7487;SDS011;3785;52.260;4.728;2023-01-28T17:01:55;4.18;;;2.67;;
7487;SDS011;3785;52.260;4.728;2023-01-28T17:05:16;3.33;;;2.30;;
7487;SDS011;3785;52.260;4.728;2023-01-28T17:08:38;6.07;;;2.60;;
7487;SDS011;3785;52.260;4.728;2023-01-28T17:12:00;4.22;;;2.10;;
7487;SDS011;3785;52.260;4.728;2023-01-28T17:15:22;3.33;;;2.17;;
7487;SDS011;3785;52.260;4.728;2023-01-28T17:18:42;3.72;;;2.38;;
7487;SDS011;3785;52.260;4.728;2023-01-28T17:22:03;4.50;;;2.20;;
7487;SDS011;3785;52.260;4.728;2023-01-28T17:25:23;3.50;;;2.00;;
7487;SDS011;3785;52.260;4.728;2023-01-28T17:28:44;4.95;;;2.53;;
7487;SDS011;3785;52.260;4.728;2023-01-28T17:32:11;6.25;;;2.80;;
7487;SDS011;3785;52.260;4.728;2023-01-28T17:35:31;3.90;;;2.35;;
7487;SDS011;3785;52.260;4.728;2023-01-28T17:38:54;4.88;;;2.40;;
7487;SDS011;3785;52.260;4.728;2023-01-28T17:42:14;5.10;;;2.88;;
7487;SDS011;3785;52.260;4.728;2023-01-28T17:45:36;4.88;;;2.60;;
7487;SDS011;3785;52.260;4.728;2023-01-28T17:48:56;6.40;;;3.20;;
7487;SDS011;3785;52.260;4.728;2023-01-28T17:52:17;4.22;;;2.50;;
7487;SDS011;3785;52.260;4.728;2023-01-28T17:55:37;4.65;;;2.30;;
7487;SDS011;3785;52.260;4.728;2023-01-28T17:58:59;3.88;;;2.45;;
7487;SDS011;3785;52.260;4.728;2023-01-28T18:02:22;4.55;;;2.40;;
7487;SDS011;3785;52.260;4.728;2023-01-28T18:05:43;4.63;;;2.35;;
7487;SDS011;3785;52.260;4.728;2023-01-28T18:09:03;5.50;;;2.55;;
7487;SDS011;3785;52.260;4.728;2023-01-28T18:12:24;4.78;;;3.05;;
7487;SDS011;3785;52.260;4.728;2023-01-28T18:15:44;6.35;;;3.03;;
7487;SDS011;3785;52.260;4.728;2023-01-28T18:19:05;5.25;;;2.67;;
7487;SDS011;3785;52.260;4.728;2023-01-28T18:22:27;4.65;;;3.17;;
7487;SDS011;3785;52.260;4.728;2023-01-28T18:25:48;3.58;;;2.40;;
7487;SDS011;3785;52.260;4.728;2023-01-28T18:29:08;3.30;;;2.05;;
7487;SDS011;3785;52.260;4.728;2023-01-28T18:32:35;3.70;;;2.63;;
7487;SDS011;3785;52.260;4.728;2023-01-28T18:35:57;3.63;;;2.35;;
7487;SDS011;3785;52.260;4.728;2023-01-28T18:39:18;3.75;;;2.22;;
7487;SDS011;3785;52.260;4.728;2023-01-28T18:42:39;6.20;;;3.17;;
7487;SDS011;3785;52.260;4.728;2023-01-28T18:46:00;4.85;;;2.60;;
7487;SDS011;3785;52.260;4.728;2023-01-28T18:49:21;3.90;;;2.25;;
7487;SDS011;3785;52.260;4.728;2023-01-28T18:52:41;6.05;;;2.95;;
7487;SDS011;3785;52.260;4.728;2023-01-28T18:56:03;4.55;;;2.55;;
7487;SDS011;3785;52.260;4.728;2023-01-28T18:59:24;4.35;;;2.50;;
7487;SDS011;3785;52.260;4.728;2023-01-28T19:02:45;4.35;;;2.80;;
7487;SDS011;3785;52.260;4.728;2023-01-28T19:06:06;4.28;;;2.45;;
7487;SDS011;3785;52.260;4.728;2023-01-28T19:09:28;4.45;;;2.28;;
7487;SDS011;3785;52.260;4.728;2023-01-28T19:12:49;3.83;;;2.30;;
7487;SDS011;3785;52.260;4.728;2023-01-28T19:16:09;4.20;;;2.58;;
7487;SDS011;3785;52.260;4.728;2023-01-28T19:19:30;5.68;;;2.80;;
7487;SDS011;3785;52.260;4.728;2023-01-28T19:22:51;4.93;;;2.80;;
7487;SDS011;3785;52.260;4.728;2023-01-28T19:26:11;3.40;;;2.55;;
7487;SDS011;3785;52.260;4.728;2023-01-28T19:29:33;6.10;;;3.05;;
7487;SDS011;3785;52.260;4.728;2023-01-28T19:32:53;6.47;;;3.17;;
7487;SDS011;3785;52.260;4.728;2023-01-28T19:36:14;7.65;;;3.60;;
7487;SDS011;3785;52.260;4.728;2023-01-28T19:39:35;5.80;;;3.13;;
7487;SDS011;3785;52.260;4.728;2023-01-28T19:42:55;8.85;;;3.78;;
7487;SDS011;3785;52.260;4.728;2023-01-28T19:46:16;4.18;;;2.72;;
7487;SDS011;3785;52.260;4.728;2023-01-28T19:49:37;4.05;;;2.55;;
7487;SDS011;3785;52.260;4.728;2023-01-28T19:52:57;4.13;;;2.72;;
7487;SDS011;3785;52.260;4.728;2023-01-28T19:56:19;7.13;;;3.05;;
7487;SDS011;3785;52.260;4.728;2023-01-28T19:59:41;4.35;;;2.65;;
7487;SDS011;3785;52.260;4.728;2023-01-28T20:03:01;3.45;;;2.30;;
7487;SDS011;3785;52.260;4.728;2023-01-28T20:06:26;5.85;;;2.60;;
7487;SDS011;3785;52.260;4.728;2023-01-28T20:09:47;5.65;;;2.63;;
7487;SDS011;3785;52.260;4.728;2023-01-28T20:13:08;3.83;;;2.47;;
7487;SDS011;3785;52.260;4.728;2023-01-28T20:16:30;5.15;;;2.55;;
7487;SDS011;3785;52.260;4.728;2023-01-28T20:19:51;4.10;;;2.63;;
7487;SDS011;3785;52.260;4.728;2023-01-28T20:23:12;4.45;;;2.65;;
7487;SDS011;3785;52.260;4.728;2023-01-28T20:26:34;4.28;;;2.80;;
7487;SDS011;3785;52.260;4.728;2023-01-28T20:29:56;3.92;;;2.45;;
7487;SDS011;3785;52.260;4.728;2023-01-28T20:33:17;4.68;;;3.22;;
7487;SDS011;3785;52.260;4.728;2023-01-28T20:36:38;4.32;;;2.25;;
7487;SDS011;3785;52.260;4.728;2023-01-28T20:39:58;3.92;;;2.63;;
7487;SDS011;3785;52.260;4.728;2023-01-28T20:43:19;5.22;;;3.40;;
7487;SDS011;3785;52.260;4.728;2023-01-28T20:46:39;5.70;;;2.95;;
7487;SDS011;3785;52.260;4.728;2023-01-28T20:50:00;4.00;;;3.08;;
7487;SDS011;3785;52.260;4.728;2023-01-28T20:53:21;5.07;;;2.92;;
7487;SDS011;3785;52.260;4.728;2023-01-28T20:56:42;6.22;;;3.30;;
7487;SDS011;3785;52.260;4.728;2023-01-28T21:00:03;6.00;;;3.30;;
7487;SDS011;3785;52.260;4.728;2023-01-28T21:03:25;4.63;;;3.30;;
7487;SDS011;3785;52.260;4.728;2023-01-28T21:06:45;5.78;;;3.33;;
7487;SDS011;3785;52.260;4.728;2023-01-28T21:10:06;5.32;;;3.25;;
7487;SDS011;3785;52.260;4.728;2023-01-28T21:13:27;5.30;;;3.33;;
7487;SDS011;3785;52.260;4.728;2023-01-28T21:16:48;5.60;;;3.28;;
7487;SDS011;3785;52.260;4.728;2023-01-28T21:20:11;7.03;;;3.53;;
7487;SDS011;3785;52.260;4.728;2023-01-28T21:23:32;6.25;;;4.13;;
7487;SDS011;3785;52.260;4.728;2023-01-28T21:26:53;7.55;;;3.47;;
7487;SDS011;3785;52.260;4.728;2023-01-28T21:30:13;6.97;;;4.13;;
7487;SDS011;3785;52.260;4.728;2023-01-28T21:33:35;7.03;;;4.22;;
7487;SDS011;3785;52.260;4.728;2023-01-28T21:36:56;7.95;;;4.15;;
7487;SDS011;3785;52.260;4.728;2023-01-28T21:40:17;8.25;;;4.55;;
7487;SDS011;3785;52.260;4.728;2023-01-28T21:43:38;7.78;;;4.30;;
7487;SDS011;3785;52.260;4.728;2023-01-28T21:46:58;8.70;;;4.80;;
7487;SDS011;3785;52.260;4.728;2023-01-28T21:50:19;7.35;;;4.38;;
7487;SDS011;3785;52.260;4.728;2023-01-28T21:53:41;7.93;;;3.83;;
7487;SDS011;3785;52.260;4.728;2023-01-28T21:57:01;6.13;;;4.07;;
7487;SDS011;3785;52.260;4.728;2023-01-28T22:00:23;8.52;;;4.47;;
7487;SDS011;3785;52.260;4.728;2023-01-28T22:03:43;9.10;;;4.40;;
7487;SDS011;3785;52.260;4.728;2023-01-28T22:07:05;6.50;;;4.00;;
7487;SDS011;3785;52.260;4.728;2023-01-28T22:10:27;7.50;;;4.13;;
7487;SDS011;3785;52.260;4.728;2023-01-28T22:13:47;7.10;;;4.70;;
7487;SDS011;3785;52.260;4.728;2023-01-28T22:17:08;7.78;;;4.03;;
7487;SDS011;3785;52.260;4.728;2023-01-28T22:20:30;9.75;;;4.40;;
7487;SDS011;3785;52.260;4.728;2023-01-28T22:23:51;6.55;;;4.10;;
7487;SDS011;3785;52.260;4.728;2023-01-28T22:27:11;5.82;;;3.88;;
7487;SDS011;3785;52.260;4.728;2023-01-28T22:30:33;6.47;;;4.10;;
7487;SDS011;3785;52.260;4.728;2023-01-28T22:33:53;8.23;;;4.10;;
7487;SDS011;3785;52.260;4.728;2023-01-28T22:37:14;8.25;;;4.32;;
7487;SDS011;3785;52.260;4.728;2023-01-28T22:40:34;6.93;;;4.20;;
7487;SDS011;3785;52.260;4.728;2023-01-28T22:43:55;6.05;;;3.47;;
7487;SDS011;3785;52.260;4.728;2023-01-28T22:47:16;7.88;;;4.03;;
7487;SDS011;3785;52.260;4.728;2023-01-28T22:50:36;5.18;;;3.47;;
7487;SDS011;3785;52.260;4.728;2023-01-28T22:53:57;4.70;;;3.13;;
7487;SDS011;3785;52.260;4.728;2023-01-28T22:57:18;4.72;;;3.25;;
7487;SDS011;3785;52.260;4.728;2023-01-28T23:00:38;5.55;;;3.22;;